Time;durP1;ratioP1;P1;durP2;ratioP2;P2;SDS_P1;SDS_P2;PMS_P1;PMS_P2;Temp;Humidity;BMP_temperature;BMP_pressure;BME280_temperature;BME280_humidity;BME280_pressure;Samples;Min_cycle;Max_cycle;Signal;HPM_P1;HPM_P2
2023/06/24 00:01:48;;;;;;;6.18;3.67;;;23.40;68.60;;;;;;5046580;28;20040;-55
2023/06/24 00:04:15;;;;;;;7.15;3.60;;;23.40;68.60;;;;;;5044206;28;20057;-55
2023/06/24 00:06:40;;;;;;;9.48;3.38;;;23.30;68.60;;;;;;5044953;28;20032;-55
2023/06/24 00:09:07;;;;;;;5.78;3.65;;;23.30;68.60;;;;;;5046472;28;20025;-55
2023/06/24 00:11:33;;;;;;;5.32;3.10;;;23.20;68.70;;;;;;5045024;28;20090;-55
2023/06/24 00:13:58;;;;;;;5.57;3.40;;;23.30;69.20;;;;;;5046043;28;20033;-55
2023/06/24 00:16:27;;;;;;;5.82;3.40;;;23.20;68.70;;;;;;5046210;28;20052;-55
2023/06/24 00:19:00;;;;;;;4.88;3.33;;;23.20;68.80;;;;;;5044808;28;20025;-55
2023/06/24 00:21:29;;;;;;;4.32;3.40;;;23.20;68.90;;;;;;5044836;28;20036;-55
2023/06/24 00:23:58;;;;;;;3.60;3.30;;;23.20;69.00;;;;;;5046211;28;20021;-55
2023/06/24 00:26:25;;;;;;;5.22;3.30;;;23.10;69.10;;;;;;5045282;28;20025;-55
2023/06/24 00:28:50;;;;;;;5.70;3.80;;;23.10;69.30;;;;;;5046067;28;20021;-55
2023/06/24 00:31:16;;;;;;;7.22;3.40;;;23.00;69.30;;;;;;5046038;28;20382;-55
2023/06/24 00:33:42;;;;;;;5.82;3.63;;;23.00;69.50;;;;;;5044484;28;20427;-55
2023/06/24 00:36:11;;;;;;;4.55;3.00;;;23.00;69.80;;;;;;5027786;28;20122;-55
2023/06/24 00:38:37;;;;;;;3.88;3.20;;;22.90;69.80;;;;;;5044397;28;20032;-55
2023/06/24 00:41:03;;;;;;;6.22;3.40;;;22.90;69.90;;;;;;5045891;28;20037;-55
2023/06/24 00:43:29;;;;;;;5.35;3.65;;;22.80;69.90;;;;;;5044261;28;20037;-55
2023/06/24 00:45:55;;;;;;;7.25;3.55;;;22.90;70.00;;;;;;5044334;28;20025;-55
2023/06/24 00:48:21;;;;;;;8.02;3.38;;;22.80;69.90;;;;;;5044118;28;20040;-55
2023/06/24 00:50:49;;;;;;;5.15;3.45;;;22.80;70.10;;;;;;5044261;28;20021;-55
2023/06/24 00:53:15;;;;;;;4.13;3.13;;;22.80;70.20;;;;;;5044359;28;20033;-55
2023/06/24 00:55:41;;;;;;;6.35;3.60;;;22.80;70.30;;;;;;5044188;28;20108;-55
2023/06/24 00:58:06;;;;;;;5.13;3.60;;;22.70;70.40;;;;;;5046038;28;20034;-55
2023/06/24 01:00:34;;;;;;;4.63;3.20;;;22.70;70.40;;;;;;5044034;28;20499;-55
2023/06/24 01:03:00;;;;;;;4.13;3.70;;;22.60;70.50;;;;;;5043929;28;20048;-54
2023/06/24 01:05:26;;;;;;;3.20;2.97;;;22.60;70.70;;;;;;5045282;28;20088;-55
2023/06/24 01:07:55;;;;;;;4.47;3.70;;;22.60;70.90;;;;;;5044106;28;20033;-55
2023/06/24 01:10:22;;;;;;;4.45;3.45;;;22.60;70.90;;;;;;5043994;28;20033;-55
2023/06/24 01:12:47;;;;;;;5.93;3.30;;;22.60;70.90;;;;;;5043998;28;20056;-55
2023/06/24 01:15:13;;;;;;;3.88;3.03;;;22.60;71.00;;;;;;5043495;28;20033;-55
2023/06/24 01:17:42;;;;;;;3.78;3.35;;;22.50;71.00;;;;;;5043698;28;20026;-55
2023/06/24 01:20:15;;;;;;;6.57;3.80;;;22.50;71.10;;;;;;5027507;28;20025;-55
2023/06/24 01:22:47;;;;;;;3.75;3.00;;;22.50;71.10;;;;;;5043887;28;20029;-55
2023/06/24 01:25:41;;;;;;;5.30;3.47;;;22.40;71.10;;;;;;5044973;28;20033;-55
2023/06/24 01:28:19;;;;;;;4.35;3.25;;;22.40;71.40;;;;;;5051505;28;20113;-55
2023/06/24 01:31:17;;;;;;;5.45;3.30;;;22.30;71.40;;;;;;5043545;28;20124;-55
2023/06/24 01:33:50;;;;;;;5.38;3.40;;;22.30;71.50;;;;;;5043577;28;20030;-55
2023/06/24 01:36:17;;;;;;;6.88;3.80;;;22.30;71.80;;;;;;5043340;28;20064;-55
2023/06/24 01:38:52;;;;;;;7.20;3.50;;;22.30;71.80;;;;;;5043211;28;20059;-55
2023/06/24 01:41:21;;;;;;;4.80;3.30;;;22.30;71.90;;;;;;5045155;28;20037;-55
2023/06/24 01:43:46;;;;;;;7.03;4.00;;;22.20;71.90;;;;;;5043911;28;20088;-55
2023/06/24 01:46:12;;;;;;;6.90;3.78;;;22.20;71.90;;;;;;5043461;28;20033;-55
2023/06/24 01:48:37;;;;;;;4.65;3.65;;;22.20;71.80;;;;;;5043547;28;20059;-55
2023/06/24 01:51:09;;;;;;;4.00;3.60;;;22.20;71.80;;;;;;5043419;28;20021;-55
2023/06/24 01:53:38;;;;;;;4.15;3.75;;;22.20;72.00;;;;;;5044393;28;20055;-55
2023/06/24 01:56:04;;;;;;;4.30;3.60;;;22.20;72.10;;;;;;5043125;28;20034;-54
2023/06/24 01:58:30;;;;;;;5.03;3.80;;;22.20;72.10;;;;;;5043319;28;20033;-55
2023/06/24 02:00:56;;;;;;;5.43;3.30;;;22.10;72.10;;;;;;5043557;28;20175;-55
2023/06/24 02:03:21;;;;;;;5.45;3.78;;;22.10;72.40;;;;;;5043340;28;20422;-55
2023/06/24 02:05:47;;;;;;;7.43;3.88;;;22.00;72.50;;;;;;5043278;28;20021;-55
2023/06/24 02:08:13;;;;;;;3.83;3.30;;;22.00;72.60;;;;;;5043078;28;20500;-54
2023/06/24 02:10:39;;;;;;;6.55;5.05;;;22.00;72.60;;;;;;5042924;28;20060;-55
2023/06/24 02:13:05;;;;;;;9.35;4.70;;;22.00;72.70;;;;;;5043238;28;20029;-54
2023/06/24 02:15:30;;;;;;;9.27;4.72;;;22.00;72.70;;;;;;5042654;28;20452;-55
2023/06/24 02:17:56;;;;;;;6.65;3.88;;;22.00;73.40;;;;;;5042847;28;20070;-55
2023/06/24 02:20:27;;;;;;;7.53;4.65;;;22.00;72.80;;;;;;5042973;28;20025;-55
2023/06/24 02:22:53;;;;;;;5.13;3.67;;;22.00;72.90;;;;;;5043198;28;20520;-55
2023/06/24 02:25:18;;;;;;;4.15;3.72;;;21.90;73.00;;;;;;5043029;28;20137;-55
2023/06/24 02:27:44;;;;;;;6.50;4.47;;;21.90;73.20;;;;;;5043243;28;20167;-55
2023/06/24 02:30:10;;;;;;;4.63;4.22;;;21.90;73.30;;;;;;5046096;28;20049;-54
2023/06/24 02:32:38;;;;;;;9.32;4.50;;;21.90;73.30;;;;;;5050469;28;20033;-55
2023/06/24 02:35:04;;;;;;;5.68;4.50;;;21.90;73.40;;;;;;5049785;28;20029;-55
2023/06/24 02:37:29;;;;;;;5.00;4.28;;;21.90;73.50;;;;;;5046602;28;20040;-55
2023/06/24 02:39:55;;;;;;;4.85;4.03;;;21.90;73.60;;;;;;5063976;28;20049;-55
2023/06/24 02:42:21;;;;;;;4.85;4.30;;;21.80;73.70;;;;;;5066739;28;20032;-55
2023/06/24 02:44:46;;;;;;;4.85;4.20;;;21.80;73.80;;;;;;5068131;28;20049;-55
2023/06/24 02:47:12;;;;;;;5.22;4.13;;;21.80;74.00;;;;;;5063994;28;20033;-55
2023/06/24 02:49:38;;;;;;;10.68;4.22;;;21.80;74.00;;;;;;5066536;28;20040;-55
2023/06/24 02:52:04;;;;;;;5.82;3.95;;;21.80;74.10;;;;;;5066372;28;20048;-55
2023/06/24 02:54:30;;;;;;;4.90;4.32;;;21.80;74.40;;;;;;5067686;28;20032;-55
2023/06/24 02:56:57;;;;;;;5.45;3.80;;;21.70;75.20;;;;;;5062394;28;20108;-55
2023/06/24 02:59:23;;;;;;;9.38;4.07;;;21.70;74.60;;;;;;5046070;28;20060;-55
2023/06/24 03:01:49;;;;;;;5.13;4.05;;;21.70;75.30;;;;;;5046369;28;20036;-55
2023/06/24 03:04:15;;;;;;;6.05;4.30;;;21.70;75.40;;;;;;5029423;28;20073;-54
2023/06/24 03:06:40;;;;;;;4.97;4.47;;;21.70;74.90;;;;;;5064325;28;20056;-55
2023/06/24 03:09:07;;;;;;;8.27;5.32;;;21.70;74.90;;;;;;5049380;28;20022;-55
2023/06/24 03:11:40;;;;;;;5.78;4.80;;;21.60;75.00;;;;;;5029735;28;20056;-55
2023/06/24 03:14:06;;;;;;;12.32;5.10;;;21.60;75.00;;;;;;5035265;28;20045;-55
2023/06/24 03:16:31;;;;;;;6.82;4.90;;;21.60;75.10;;;;;;5056910;28;20087;-55
2023/06/24 03:18:57;;;;;;;8.38;4.43;;;21.60;75.40;;;;;;5045629;28;20405;-55
2023/06/24 03:21:28;;;;;;;6.65;4.60;;;21.50;75.50;;;;;;5050470;28;20033;-55
2023/06/24 03:23:53;;;;;;;6.63;4.85;;;21.50;75.80;;;;;;5065952;28;20043;-55
2023/06/24 03:26:19;;;;;;;7.88;5.07;;;21.50;75.90;;;;;;5065799;28;20108;-55
2023/06/24 03:28:44;;;;;;;6.25;4.72;;;21.50;76.10;;;;;;5065968;28;20174;-55
2023/06/24 03:31:10;;;;;;;5.93;4.38;;;21.40;76.20;;;;;;5062961;28;20025;-55
2023/06/24 03:33:36;;;;;;;4.25;3.85;;;21.40;76.30;;;;;;5065783;28;20029;-55
2023/06/24 03:36:01;;;;;;;7.57;4.10;;;21.40;76.30;;;;;;5065521;28;20033;-55
2023/06/24 03:38:27;;;;;;;8.57;5.20;;;21.40;76.40;;;;;;5064933;28;20036;-55
2023/06/24 03:40:53;;;;;;;7.75;5.38;;;21.30;76.50;;;;;;5063706;28;20036;-55
2023/06/24 03:43:19;;;;;;;6.35;5.32;;;21.40;76.60;;;;;;5066654;28;20025;-55
2023/06/24 03:45:44;;;;;;;7.03;5.22;;;21.30;76.50;;;;;;5065364;28;20025;-55
2023/06/24 03:48:10;;;;;;;6.57;4.63;;;21.30;76.60;;;;;;5059187;28;20068;-54
2023/06/24 03:50:36;;;;;;;6.15;4.90;;;21.30;76.70;;;;;;5029742;28;20040;-55
2023/06/24 03:53:02;;;;;;;17.40;5.97;;;21.30;76.80;;;;;;5046823;28;20235;-55
2023/06/24 03:55:28;;;;;;;12.10;6.45;;;21.20;76.80;;;;;;5046709;28;20038;-55
2023/06/24 03:57:53;;;;;;;27.52;8.45;;;21.20;76.90;;;;;;5044400;28;20083;-55
2023/06/24 04:00:20;;;;;;;17.70;7.40;;;21.20;77.00;;;;;;5028435;28;20032;-55
2023/06/24 04:02:46;;;;;;;23.88;7.55;;;21.20;77.10;;;;;;5045319;28;20065;-54
2023/06/24 04:05:12;;;;;;;29.13;8.60;;;21.20;77.10;;;;;;5044522;28;20097;-55
2023/06/24 04:07:38;;;;;;;24.67;8.27;;;21.20;77.20;;;;;;5045056;28;20029;-55
2023/06/24 04:10:08;;;;;;;44.55;8.52;;;21.20;77.30;;;;;;5045043;28;20045;-55
2023/06/24 04:12:36;;;;;;;26.70;7.75;;;21.10;77.60;;;;;;5046538;28;20037;-55
2023/06/24 04:15:03;;;;;;;35.10;7.82;;;21.10;77.80;;;;;;5051611;28;20028;-54
2023/06/24 04:17:29;;;;;;;25.70;6.80;;;21.10;77.90;;;;;;5064627;28;20029;-54
2023/06/24 04:19:54;;;;;;;24.08;7.55;;;21.10;78.10;;;;;;5065436;28;20029;-55
2023/06/24 04:22:20;;;;;;;17.92;6.63;;;21.10;78.10;;;;;;5064805;28;20031;-55
2023/06/24 04:24:45;;;;;;;23.50;6.57;;;21.10;78.30;;;;;;5063597;28;20065;-55
2023/06/24 04:27:11;;;;;;;19.27;6.03;;;21.00;78.40;;;;;;5047827;28;20036;-55
2023/06/24 04:29:36;;;;;;;15.27;6.05;;;21.00;78.60;;;;;;5066064;28;20056;-55
2023/06/24 04:32:02;;;;;;;17.95;5.97;;;21.00;78.70;;;;;;5060666;28;20121;-55
2023/06/24 04:34:28;;;;;;;14.82;5.80;;;20.90;78.60;;;;;;5045558;28;20044;-55
2023/06/24 04:36:53;;;;;;;12.18;6.10;;;20.90;78.50;;;;;;5044270;28;20101;-55
2023/06/24 04:39:19;;;;;;;12.45;5.70;;;20.90;78.50;;;;;;5044330;28;20030;-55
2023/06/24 04:41:46;;;;;;;10.98;5.53;;;20.90;78.40;;;;;;5045130;28;20079;-55
2023/06/24 04:44:11;;;;;;;15.93;5.82;;;20.90;78.50;;;;;;5044297;28;20022;-55
2023/06/24 04:46:37;;;;;;;12.38;5.13;;;20.90;78.50;;;;;;5045632;28;20366;-55
2023/06/24 04:49:02;;;;;;;13.98;5.55;;;20.90;78.50;;;;;;5027492;28;20030;-55
2023/06/24 04:51:28;;;;;;;12.38;5.35;;;20.90;78.50;;;;;;5045027;28;20099;-55
2023/06/24 04:53:55;;;;;;;13.75;5.30;;;20.90;78.60;;;;;;5043818;28;20057;-55
2023/06/24 04:56:20;;;;;;;12.80;5.47;;;20.90;78.70;;;;;;5043314;28;20025;-55
2023/06/24 04:58:46;;;;;;;12.55;5.28;;;20.80;78.50;;;;;;5043894;28;20044;-55
2023/06/24 05:01:11;;;;;;;8.65;4.80;;;20.80;78.50;;;;;;5043368;28;20045;-55
2023/06/24 05:03:37;;;;;;;14.38;5.13;;;20.80;78.40;;;;;;5045341;28;20028;-55
2023/06/24 05:06:02;;;;;;;9.88;5.38;;;20.80;78.30;;;;;;5043938;28;20038;-55
2023/06/24 05:08:28;;;;;;;15.63;5.05;;;20.80;78.30;;;;;;5027329;28;20059;-55
2023/06/24 05:10:53;;;;;;;12.75;5.10;;;20.80;78.20;;;;;;5051957;28;20089;-55
2023/06/24 05:13:19;;;;;;;5.70;4.50;;;20.80;78.20;;;;;;5044911;28;20157;-55
2023/06/24 05:15:45;;;;;;;8.98;5.18;;;20.80;78.20;;;;;;5045083;28;20079;-55
2023/06/24 05:18:10;;;;;;;9.35;5.18;;;20.80;78.20;;;;;;5048037;28;20097;-54
2023/06/24 05:20:36;;;;;;;14.75;4.78;;;20.80;78.10;;;;;;5063645;28;20047;-55
2023/06/24 05:23:01;;;;;;;9.65;5.22;;;20.80;78.10;;;;;;5063814;28;20021;-55
2023/06/24 05:25:27;;;;;;;10.50;5.10;;;20.80;78.10;;;;;;5060394;28;20144;-53
2023/06/24 05:27:52;;;;;;;8.48;4.88;;;20.80;78.10;;;;;;5043750;28;20071;-55
2023/06/24 05:30:18;;;;;;;9.13;4.80;;;20.80;78.10;;;;;;5027625;28;20025;-55
2023/06/24 05:32:43;;;;;;;6.13;4.97;;;20.80;78.10;;;;;;5063393;28;20048;-55
2023/06/24 05:35:09;;;;;;;12.82;5.50;;;20.80;78.10;;;;;;5046641;28;20029;-55
2023/06/24 05:37:34;;;;;;;7.22;4.72;;;20.80;78.00;;;;;;5010018;28;20100;-55
2023/06/24 05:40:01;;;;;;;6.57;5.03;;;20.80;78.10;;;;;;5044640;28;20029;-55
2023/06/24 05:42:27;;;;;;;9.25;4.70;;;20.80;78.20;;;;;;5048367;28;20465;-54
2023/06/24 05:44:53;;;;;;;10.15;5.22;;;20.80;78.20;;;;;;5063017;28;20043;-55
2023/06/24 05:47:18;;;;;;;7.85;4.93;;;20.70;78.20;;;;;;5027587;28;20029;-55
2023/06/24 05:49:44;;;;;;;5.97;4.60;;;20.80;78.20;;;;;;5041354;28;20056;-55
2023/06/24 05:52:10;;;;;;;6.63;4.88;;;20.80;78.10;;;;;;5044384;28;20393;-55
2023/06/24 05:54:35;;;;;;;8.63;5.10;;;20.80;78.20;;;;;;5036452;28;20061;-55
2023/06/24 05:57:01;;;;;;;6.05;4.50;;;20.70;78.10;;;;;;5048244;28;20040;-55
2023/06/24 05:59:27;;;;;;;7.60;5.10;;;20.80;78.10;;;;;;5044391;28;20022;-55
2023/06/24 06:01:52;;;;;;;9.30;5.00;;;20.80;78.20;;;;;;5043209;28;20033;-55
2023/06/24 06:04:18;;;;;;;7.35;4.47;;;20.80;78.20;;;;;;5063371;28;20116;-55
2023/06/24 06:06:43;;;;;;;4.88;4.30;;;20.70;78.20;;;;;;5068682;28;20364;-55
2023/06/24 06:09:09;;;;;;;7.10;4.38;;;20.70;78.20;;;;;;5050495;28;20453;-55
2023/06/24 06:11:34;;;;;;;5.20;4.60;;;20.80;78.20;;;;;;5066016;28;20040;-55
2023/06/24 06:14:00;;;;;;;7.05;4.78;;;20.80;78.10;;;;;;5050343;28;20025;-55
2023/06/24 06:16:26;;;;;;;7.50;4.65;;;20.80;78.20;;;;;;5068462;28;20485;-55
2023/06/24 06:18:52;;;;;;;5.68;4.68;;;20.70;78.10;;;;;;5051805;28;20025;-55
2023/06/24 06:21:17;;;;;;;5.80;4.68;;;20.70;78.10;;;;;;5048558;28;20045;-55
2023/06/24 06:23:43;;;;;;;5.60;3.90;;;20.70;78.20;;;;;;5047045;28;20041;-55
2023/06/24 06:26:08;;;;;;;5.45;4.55;;;20.70;78.20;;;;;;5046944;28;20038;-55
2023/06/24 06:28:34;;;;;;;6.05;4.30;;;20.70;78.20;;;;;;5047045;28;20045;-55
2023/06/24 06:30:59;;;;;;;6.18;4.30;;;20.70;78.20;;;;;;5046875;28;20112;-55
2023/06/24 06:33:25;;;;;;;6.25;4.30;;;20.80;78.20;;;;;;5013857;28;20034;-55
2023/06/24 06:35:50;;;;;;;6.47;4.60;;;20.70;78.10;;;;;;5046709;28;20470;-55
2023/06/24 06:38:16;;;;;;;5.82;4.10;;;20.80;78.20;;;;;;5048090;28;20511;-56
2023/06/24 06:40:42;;;;;;;7.68;4.60;;;20.70;78.10;;;;;;5048067;28;20056;-55
2023/06/24 06:43:07;;;;;;;6.78;4.80;;;20.80;78.10;;;;;;5046561;28;20022;-55
2023/06/24 06:45:33;;;;;;;5.88;4.20;;;20.80;78.00;;;;;;5048011;28;20109;-56
2023/06/24 06:47:58;;;;;;;5.50;4.35;;;20.80;78.10;;;;;;5047842;28;20127;-55
2023/06/24 06:50:24;;;;;;;4.90;4.40;;;20.80;78.10;;;;;;5046498;28;20088;-55
2023/06/24 06:52:49;;;;;;;6.65;4.47;;;20.80;78.20;;;;;;5047674;28;20040;-55
2023/06/24 06:55:15;;;;;;;6.18;4.18;;;20.80;78.10;;;;;;5046234;28;20026;-55
2023/06/24 06:57:40;;;;;;;5.95;4.20;;;20.80;78.30;;;;;;5047694;28;20095;-56
2023/06/24 07:00:07;;;;;;;6.85;4.68;;;20.80;78.30;;;;;;5047686;28;20037;-55
2023/06/24 07:02:32;;;;;;;4.55;3.78;;;20.70;78.30;;;;;;5034515;28;20037;-55
2023/06/24 07:04:59;;;;;;;7.05;4.22;;;20.80;78.30;;;;;;5066055;28;20043;-55
2023/06/24 07:07:24;;;;;;;4.63;3.85;;;20.70;78.30;;;;;;5067475;28;20036;-55
2023/06/24 07:09:50;;;;;;;5.82;4.35;;;20.80;78.50;;;;;;5065953;28;20123;-55
2023/06/24 07:12:15;;;;;;;5.72;4.20;;;20.70;78.40;;;;;;5066097;28;20040;-55
2023/06/24 07:14:41;;;;;;;6.60;4.00;;;20.70;78.40;;;;;;5066906;28;20037;-55
2023/06/24 07:17:07;;;;;;;5.22;4.28;;;20.80;78.50;;;;;;5067356;28;20036;-55
2023/06/24 07:19:32;;;;;;;5.05;4.15;;;20.80;79.10;;;;;;5065924;28;20063;-55
2023/06/24 07:21:58;;;;;;;5.13;3.88;;;20.80;78.40;;;;;;5065788;28;20454;-55
2023/06/24 07:24:23;;;;;;;4.35;3.95;;;20.80;78.40;;;;;;5066932;28;20051;-55
2023/06/24 07:26:49;;;;;;;6.80;4.65;;;20.80;78.20;;;;;;5065863;28;20084;-55
2023/06/24 07:29:15;;;;;;;6.75;4.63;;;20.80;78.00;;;;;;5065718;28;20029;-55
2023/06/24 07:31:40;;;;;;;5.13;4.63;;;20.90;78.60;;;;;;5066943;28;20037;-55
2023/06/24 07:34:06;;;;;;;4.90;4.10;;;20.90;78.50;;;;;;5066699;28;20091;-55
2023/06/24 07:36:31;;;;;;;7.93;4.25;;;20.90;78.80;;;;;;5066840;28;20043;-55
2023/06/24 07:38:57;;;;;;;9.93;4.68;;;20.90;78.80;;;;;;5065386;28;20108;-55
2023/06/24 07:41:22;;;;;;;7.57;4.25;;;20.80;78.80;;;;;;5065724;28;20036;-55
2023/06/24 07:43:48;;;;;;;6.32;4.70;;;20.80;78.80;;;;;;5054882;28;20032;-55
2023/06/24 07:46:14;;;;;;;8.98;4.38;;;20.90;78.90;;;;;;5046179;28;20043;-55
2023/06/24 07:48:39;;;;;;;7.75;4.68;;;20.90;79.10;;;;;;5044005;28;20037;-55
2023/06/24 07:51:05;;;;;;;5.88;4.70;;;20.90;79.30;;;;;;5043809;28;20045;-55
2023/06/24 07:53:30;;;;;;;6.88;5.30;;;20.90;79.30;;;;;;5043865;28;20030;-55
2023/06/24 07:55:56;;;;;;;5.35;4.75;;;20.90;79.40;;;;;;5045065;28;20025;-55
2023/06/24 07:58:21;;;;;;;9.80;4.60;;;21.00;79.60;;;;;;5028542;28;20040;-55
2023/06/24 08:00:47;;;;;;;8.18;4.82;;;21.00;79.50;;;;;;5046513;28;20039;-55
2023/06/24 08:03:13;;;;;;;4.88;4.38;;;21.00;79.80;;;;;;5044969;28;20087;-55
2023/06/24 08:05:41;;;;;;;4.95;4.25;;;21.00;79.90;;;;;;5044830;28;20036;-55
2023/06/24 08:08:07;;;;;;;6.82;4.60;;;21.00;79.60;;;;;;5045020;28;20026;-55
2023/06/24 08:10:33;;;;;;;7.65;4.43;;;21.00;79.60;;;;;;5044782;28;20037;-55
2023/06/24 08:12:58;;;;;;;8.85;4.65;;;21.00;79.50;;;;;;5046191;28;20057;-55
2023/06/24 08:15:24;;;;;;;7.53;4.43;;;21.10;79.40;;;;;;5045969;28;20040;-55
2023/06/24 08:17:53;;;;;;;9.10;4.72;;;21.00;79.10;;;;;;5044600;28;20060;-55
2023/06/24 08:20:20;;;;;;;10.20;4.88;;;21.10;79.10;;;;;;5045896;28;20018;-55
2023/06/24 08:22:45;;;;;;;20.85;6.10;;;21.10;79.10;;;;;;5045904;28;20034;-55
2023/06/24 08:25:11;;;;;;;23.20;6.25;;;21.10;79.10;;;;;;5045209;28;20036;-55
2023/06/24 08:27:37;;;;;;;16.75;6.20;;;21.10;79.20;;;;;;5027841;28;20061;-55
2023/06/24 08:30:06;;;;;;;23.33;5.90;;;21.00;79.20;;;;;;5045587;28;20026;-55
2023/06/24 08:32:32;;;;;;;21.23;6.72;;;21.20;79.30;;;;;;5045461;28;20129;-54
2023/06/24 08:34:58;;;;;;;18.13;6.30;;;21.20;79.20;;;;;;5043864;28;20053;-55
2023/06/24 08:37:23;;;;;;;15.63;5.85;;;21.20;79.00;;;;;;5045328;28;20041;-55
2023/06/24 08:39:49;;;;;;;23.02;6.85;;;21.30;78.80;;;;;;5043925;28;20018;-55
2023/06/24 08:42:14;;;;;;;18.75;5.82;;;21.30;78.50;;;;;;5044095;28;20116;-55
2023/06/24 08:44:40;;;;;;;33.33;6.90;;;21.30;78.30;;;;;;5043859;28;20025;-55
2023/06/24 08:47:06;;;;;;;56.63;8.88;;;21.40;78.30;;;;;;5043769;28;20037;-55
2023/06/24 08:49:31;;;;;;;70.68;10.55;;;21.40;78.30;;;;;;5043762;28;20053;-55
2023/06/24 08:52:13;;;;;;;63.53;9.93;;;21.50;78.10;;;;;;5043985;28;20029;-55
2023/06/24 08:54:39;;;;;;;85.57;11.15;;;21.50;78.10;;;;;;5027110;28;20036;-55
2023/06/24 08:57:08;;;;;;;43.30;8.50;;;21.60;77.50;;;;;;5043985;28;20034;-55
2023/06/24 08:59:34;;;;;;;21.65;6.72;;;21.60;77.00;;;;;;5043982;28;20026;-55
2023/06/24 09:01:59;;;;;;;20.08;5.90;;;21.60;76.90;;;;;;5044916;28;20048;-55
2023/06/24 09:04:25;;;;;;;31.88;6.80;;;21.60;76.10;;;;;;5043305;28;20410;-55
2023/06/24 09:06:50;;;;;;;25.88;6.57;;;21.60;75.90;;;;;;5043334;28;20375;-55
2023/06/24 09:09:20;;;;;;;29.38;6.95;;;21.70;76.10;;;;;;5043652;28;20017;-55
2023/06/24 09:11:54;;;;;;;21.15;5.70;;;21.70;76.20;;;;;;5043593;28;20036;-55
2023/06/24 09:14:20;;;;;;;35.58;7.22;;;21.70;76.00;;;;;;5043013;28;20044;-54
2023/06/24 09:16:51;;;;;;;122.50;13.77;;;21.80;76.00;;;;;;5042900;28;20093;-54
2023/06/24 09:19:21;;;;;;;144.82;18.58;;;21.80;76.10;;;;;;5043339;28;20056;-55
2023/06/24 09:21:46;;;;;;;148.50;20.23;;;21.90;76.20;;;;;;5043379;28;20105;-55
2023/06/24 09:24:12;;;;;;;131.90;17.80;;;22.00;76.50;;;;;;5044766;28;20112;-55
2023/06/24 09:26:37;;;;;;;135.70;18.33;;;22.00;77.00;;;;;;5043256;28;20025;-55
2023/06/24 09:29:03;;;;;;;75.90;12.70;;;22.10;76.90;;;;;;5044471;28;20025;-54
2023/06/24 09:31:28;;;;;;;190.93;22.15;;;22.20;76.80;;;;;;5043342;28;20040;-55
2023/06/24 09:33:57;;;;;;;136.85;15.98;;;22.20;77.00;;;;;;5044060;28;20028;-55
2023/06/24 09:36:23;;;;;;;77.68;13.57;;;22.20;77.30;;;;;;5042067;28;20033;-55
2023/06/24 09:38:49;;;;;;;82.00;12.50;;;22.30;77.30;;;;;;5042763;28;20026;-55
2023/06/24 09:41:14;;;;;;;51.13;9.25;;;22.30;76.90;;;;;;5043299;28;20033;-55
2023/06/24 09:43:42;;;;;;;45.55;7.40;;;22.30;74.70;;;;;;5026992;28;20029;-55
2023/06/24 09:46:07;;;;;;;67.65;10.52;;;22.40;73.60;;;;;;5043479;28;20032;-55
2023/06/24 09:48:33;;;;;;;60.83;9.73;;;22.40;73.90;;;;;;5043628;28;20049;-55
2023/06/24 09:51:03;;;;;;;83.03;9.82;;;22.50;73.40;;;;;;5044698;28;20034;-55
2023/06/24 09:53:32;;;;;;;61.20;11.00;;;22.50;73.40;;;;;;5043174;28;20026;-55
2023/06/24 09:56:04;;;;;;;86.28;12.77;;;22.50;72.90;;;;;;5042365;28;20030;-55
2023/06/24 09:58:32;;;;;;;35.88;6.10;;;22.50;72.60;;;;;;5042649;28;20026;-55
2023/06/24 10:01:00;;;;;;;47.67;7.40;;;22.50;70.90;;;;;;5040042;28;20095;-55
2023/06/24 10:03:26;;;;;;;23.70;6.13;;;22.50;71.10;;;;;;5042430;28;20056;-55
2023/06/24 10:05:51;;;;;;;27.30;5.45;;;22.60;70.70;;;;;;5042337;28;20040;-55
2023/06/24 10:08:17;;;;;;;33.80;5.43;;;22.60;70.70;;;;;;5042198;28;20025;-54
2023/06/24 10:10:42;;;;;;;37.05;7.22;;;22.70;70.60;;;;;;5042495;28;20136;-54
2023/06/24 10:13:08;;;;;;;126.43;13.43;;;22.80;70.40;;;;;;5025764;28;20028;-55
2023/06/24 10:15:34;;;;;;;82.15;11.75;;;22.80;70.90;;;;;;5041913;28;20525;-55
2023/06/24 10:18:03;;;;;;;84.40;11.57;;;23.00;70.70;;;;;;5042403;28;20097;-55
2023/06/24 10:20:29;;;;;;;70.40;9.88;;;23.00;70.30;;;;;;5025652;28;20135;-54
2023/06/24 10:22:54;;;;;;;29.77;5.93;;;23.10;70.00;;;;;;5043530;28;20029;-55
2023/06/24 10:25:21;;;;;;;40.95;6.75;;;23.10;69.20;;;;;;5042529;28;20104;-55
2023/06/24 10:27:49;;;;;;;112.85;11.25;;;23.20;69.10;;;;;;5041772;28;20045;-54
2023/06/24 10:30:23;;;;;;;102.90;12.35;;;23.20;69.10;;;;;;5041777;28;20026;-55
2023/06/24 10:32:52;;;;;;;44.95;6.25;;;23.30;69.10;;;;;;5043554;28;20025;-56
2023/06/24 10:35:24;;;;;;;86.32;11.30;;;23.30;67.90;;;;;;5040211;28;20048;-55
2023/06/24 10:37:54;;;;;;;50.00;8.48;;;23.40;68.40;;;;;;5042753;28;20053;-53
2023/06/24 10:40:38;;;;;;;46.55;8.18;;;23.40;67.80;;;;;;5043744;28;20029;-55
2023/06/24 10:43:22;;;;;;;20.35;5.10;;;23.40;68.20;;;;;;5041140;28;20030;-55
2023/06/24 10:45:52;;;;;;;22.20;5.15;;;23.50;68.40;;;;;;5040513;28;20025;-54
2023/06/24 10:48:21;;;;;;;57.20;9.07;;;23.50;67.20;;;;;;5043060;28;20025;-55
2023/06/24 10:50:47;;;;;;;83.00;10.95;;;23.60;67.70;;;;;;5045209;28;20081;-55
2023/06/24 10:53:13;;;;;;;63.83;9.90;;;23.70;67.50;;;;;;5046889;28;20133;-55
2023/06/24 10:55:38;;;;;;;68.05;8.10;;;23.80;67.20;;;;;;5047063;28;20116;-55
2023/06/24 10:58:08;;;;;;;36.22;6.68;;;23.80;66.90;;;;;;5045848;28;20025;-55
2023/06/24 11:00:34;;;;;;;36.22;5.57;;;23.90;66.10;;;;;;5046459;28;20030;-55
2023/06/24 11:03:10;;;;;;;30.98;6.05;;;24.00;64.60;;;;;;5043559;28;20036;-55
2023/06/24 11:05:44;;;;;;;32.00;6.32;;;24.10;64.50;;;;;;5043782;28;20234;-55
2023/06/24 11:08:10;;;;;;;18.83;4.60;;;24.10;63.10;;;;;;5043647;28;20060;-55
2023/06/24 11:10:45;;;;;;;24.77;4.97;;;24.20;62.00;;;;;;5043915;28;20159;-55
2023/06/24 11:13:10;;;;;;;14.60;3.70;;;24.20;61.10;;;;;;5045045;28;20033;-55
2023/06/24 11:15:36;;;;;;;16.83;4.85;;;24.20;60.90;;;;;;5043553;28;20116;-55
2023/06/24 11:18:04;;;;;;;11.05;4.18;;;24.30;61.00;;;;;;5045334;28;20029;-55
2023/06/24 11:20:29;;;;;;;21.13;3.88;;;24.40;60.70;;;;;;5029030;28;20030;-55
2023/06/24 11:22:55;;;;;;;8.95;3.20;;;24.40;60.50;;;;;;5046929;28;20034;-55
2023/06/24 11:25:24;;;;;;;9.50;2.92;;;24.50;60.30;;;;;;5029039;28;20056;-55
2023/06/24 11:27:55;;;;;;;9.65;3.10;;;24.60;59.30;;;;;;5029518;28;20502;-55
2023/06/24 11:30:21;;;;;;;14.70;3.55;;;24.60;59.00;;;;;;5045732;28;20060;-55
2023/06/24 11:32:47;;;;;;;11.93;4.20;;;24.70;58.70;;;;;;5045417;28;20033;-55
2023/06/24 11:35:16;;;;;;;18.55;4.72;;;24.80;58.90;;;;;;5046669;28;20088;-55
2023/06/24 11:37:43;;;;;;;22.42;3.90;;;24.80;59.20;;;;;;5029126;28;20032;-55
2023/06/24 11:40:09;;;;;;;16.58;4.30;;;24.90;59.00;;;;;;5045400;28;20063;-55
2023/06/24 11:42:42;;;;;;;20.50;4.25;;;24.90;58.20;;;;;;5046781;28;20430;-55
2023/06/24 11:45:10;;;;;;;18.42;5.22;;;25.00;58.40;;;;;;5044673;28;20033;-55
2023/06/24 11:47:36;;;;;;;17.67;4.13;;;25.10;58.40;;;;;;5044996;28;20037;-55
2023/06/24 11:50:04;;;;;;;27.23;4.88;;;25.20;57.30;;;;;;5028422;28;20036;-55
2023/06/24 11:52:35;;;;;;;19.55;4.32;;;25.20;57.50;;;;;;5044962;28;20037;-55
2023/06/24 11:55:01;;;;;;;13.80;3.92;;;25.30;57.60;;;;;;5045011;28;20033;-55
2023/06/24 11:57:52;;;;;;;12.60;5.03;;;25.30;57.70;;;;;;5044556;28;20085;-55
2023/06/24 12:00:23;;;;;;;7.28;3.25;;;25.30;57.30;;;;;;5042629;28;20029;-55
2023/06/24 12:02:50;;;;;;;5.78;3.13;;;25.40;57.10;;;;;;5042629;28;20038;-56
2023/06/24 12:05:30;;;;;;;7.20;3.80;;;25.40;57.10;;;;;;5028114;28;20116;-55
2023/06/24 12:08:04;;;;;;;13.25;4.53;;;25.50;57.20;;;;;;5045986;28;20034;-55
2023/06/24 12:10:32;;;;;;;10.50;3.58;;;25.60;57.50;;;;;;5044743;28;20033;-55
2023/06/24 12:12:58;;;;;;;7.97;3.20;;;25.60;57.00;;;;;;5044857;28;20038;-55
2023/06/24 12:15:23;;;;;;;9.70;3.75;;;25.60;56.50;;;;;;5044283;28;20044;-54
2023/06/24 12:17:49;;;;;;;16.83;4.20;;;25.60;56.40;;;;;;5045939;28;20108;-55
2023/06/24 12:20:15;;;;;;;11.52;3.85;;;25.70;56.70;;;;;;5044528;28;20044;-55
2023/06/24 12:22:41;;;;;;;7.68;3.65;;;25.70;57.20;;;;;;5044530;28;20060;-55
2023/06/24 12:25:07;;;;;;;8.57;3.20;;;25.80;57.70;;;;;;5043155;28;20064;-55
2023/06/24 12:27:33;;;;;;;12.82;4.07;;;25.80;57.70;;;;;;5025943;28;20128;-55
2023/06/24 12:29:59;;;;;;;15.90;4.18;;;25.90;58.00;;;;;;5044545;28;20462;-55
2023/06/24 12:32:25;;;;;;;20.92;4.32;;;26.00;58.00;;;;;;5044909;28;20033;-55
2023/06/24 12:34:51;;;;;;;20.67;4.35;;;26.00;58.00;;;;;;5045594;28;20085;-55
2023/06/24 12:37:16;;;;;;;16.05;4.20;;;26.10;58.20;;;;;;5044413;28;20085;-55
2023/06/24 12:39:42;;;;;;;31.38;5.82;;;26.10;58.40;;;;;;5027791;28;20038;-55